createdAt,value
2022-08-10T00:01:41.371Z,102743.34
2022-08-10T00:04:41.562Z,102749.41
2022-08-10T00:07:48.111Z,102739.00
2022-08-10T00:10:58.608Z,102745.97
2022-08-10T00:14:00.677Z,102744.22
2022-08-10T00:17:02.530Z,102746.84
2022-08-10T00:20:17.501Z,102744.22
2022-08-10T00:23:20.537Z,102737.31
2022-08-10T00:27:58.875Z,102739.03
2022-08-10T00:29:56.466Z,102741.66
2022-08-10T00:33:07.686Z,102744.25
2022-08-10T00:36:09.827Z,102739.94
2022-08-10T00:39:19.032Z,102735.53
2022-08-10T00:42:22.455Z,102732.06
2022-08-10T00:45:29.944Z,102736.44
2022-08-10T00:48:33.952Z,102736.44
2022-08-10T00:51:48.705Z,102732.97
2022-08-10T00:54:53.898Z,102731.22
2022-08-10T00:58:05.090Z,102729.50
2022-08-10T01:02:08.626Z,102737.31
2022-08-10T01:04:40.237Z,102729.50
2022-08-10T01:08:10.855Z,102729.47
2022-08-10T01:12:47.586Z,102731.22
2022-08-10T01:15:01.813Z,102719.91
2022-08-10T01:18:20.380Z,102726.03
2022-08-10T01:22:08.268Z,102725.13
2022-08-10T01:26:11.889Z,102722.56
2022-08-10T01:29:26.069Z,102722.53
2022-08-10T01:32:34.405Z,102719.06
2022-08-10T01:35:49.868Z,102716.44
2022-08-10T01:38:54.259Z,102718.19
2022-08-10T01:42:05.332Z,102715.56
2022-08-10T01:45:22.026Z,102712.13
2022-08-10T01:48:35.520Z,102707.75
2022-08-10T01:51:48.258Z,102706.88
2022-08-10T01:54:53.788Z,102708.59
2022-08-10T01:58:08.385Z,102707.72
2022-08-10T02:01:16.902Z,102713.78
2022-08-10T02:04:29.191Z,102711.19
2022-08-10T02:07:41.366Z,102719.88
2022-08-10T02:10:51.203Z,102719.00
2022-08-10T02:13:58.347Z,102715.50
2022-08-10T02:17:59.193Z,102714.66
2022-08-10T02:20:52.813Z,102707.69
2022-08-10T02:24:12.244Z,102710.31
2022-08-10T02:27:24.458Z,102710.31
2022-08-10T02:30:34.482Z,102709.41
2022-08-10T02:33:56.236Z,102711.16
2022-08-10T02:37:13.555Z,102708.53
2022-08-10T02:45:01.378Z,102707.66
2022-08-10T02:45:24.117Z,102702.44
2022-08-10T02:47:15.238Z,102709.38
2022-08-10T02:50:38.332Z,102703.31
2022-08-10T02:53:55.576Z,102705.06
2022-08-10T02:57:12.439Z,102702.44
2022-08-10T03:00:17.539Z,102701.59
2022-08-10T03:03:38.356Z,102702.44
2022-08-10T03:06:46.723Z,102701.59
2022-08-10T03:10:01.536Z,102699.88
2022-08-10T03:13:08.110Z,102701.59
2022-08-10T03:16:16.220Z,102706.78
2022-08-10T03:20:34.224Z,102702.44
2022-08-10T03:22:53.325Z,102701.56
2022-08-10T03:26:09.985Z,102706.78
2022-08-10T03:29:22.750Z,102705.03
2022-08-10T03:32:26.205Z,102704.13
2022-08-10T04:11:56.487Z,102718.06
2022-08-10T04:15:14.171Z,102723.28
2022-08-10T04:18:14.841Z,102718.97
2022-08-10T04:21:27.515Z,102723.31
2022-08-10T04:24:37.399Z,102719.00
2022-08-10T04:27:40.194Z,102719.00
2022-08-10T04:30:50.044Z,102725.09
2022-08-10T04:33:55.690Z,102718.19
2022-08-10T04:37:09.362Z,102720.78
2022-08-10T04:40:28.401Z,102719.19
2022-08-10T04:48:00.312Z,102717.88
2022-08-10T05:27:15.179Z,102735.41
2022-08-10T05:30:28.705Z,102731.28
2022-08-10T05:33:33.310Z,102734.84
2022-08-10T05:36:41.069Z,102739.09
2022-08-10T05:39:45.976Z,102736.44
2022-08-10T05:42:55.962Z,102740.69
2022-08-10T05:46:21.120Z,102730.88
2022-08-10T05:49:47.634Z,102731.78
2022-08-10T05:52:49.753Z,102740.47
2022-08-10T06:00:32.419Z,102724.59
2022-08-10T06:02:58.813Z,102715.47
2022-08-10T06:06:06.322Z,102724.00
2022-08-10T06:09:24.015Z,102722.97
2022-08-10T06:12:53.295Z,102728.13
2022-08-10T06:16:05.366Z,102717.44
2022-08-10T06:19:23.906Z,102723.09
2022-08-10T06:26:11.504Z,102728.03
2022-08-10T06:29:27.982Z,102727.53
2022-08-10T06:32:42.676Z,102732.69
2022-08-10T07:18:21.405Z,102698.03
2022-08-10T07:23:08.620Z,102698.47
2022-08-10T07:29:53.507Z,102721.81
2022-08-10T07:32:59.352Z,102712.81
2022-08-10T07:36:24.329Z,102719.28
2022-08-10T07:40:02.224Z,102727.03
2022-08-10T07:43:22.729Z,102725.91
2022-08-10T07:49:58.444Z,102730.03
2022-08-10T07:53:16.909Z,102732.19
2022-08-10T07:56:49.378Z,102725.94
2022-08-10T07:59:57.967Z,102727.97
2022-08-10T08:03:21.611Z,102721.75
2022-08-10T08:06:30.686Z,102727.53
2022-08-10T08:09:57.735Z,102739.56
2022-08-10T08:13:06.446Z,102720.44
2022-08-10T08:16:22.850Z,102727.59
2022-08-10T08:19:55.560Z,102727.56
2022-08-10T08:24:10.981Z,102719.00
2022-08-10T08:26:43.219Z,102722.75
2022-08-10T08:30:08.301Z,102717.63
2022-08-10T08:33:19.746Z,102711.72
2022-08-10T08:36:33.391Z,102720.72
2022-08-10T08:39:46.228Z,102718.13
2022-08-10T08:43:36.502Z,102722.28
2022-08-10T08:48:04.362Z,102716.25
2022-08-10T08:51:10.412Z,102709.72
2022-08-10T08:54:35.762Z,102709.09
2022-08-10T08:58:09.261Z,102706.81
2022-08-10T09:01:41.447Z,102708.72
2022-08-10T09:05:22.476Z,102702.69
2022-08-10T09:09:28.128Z,102702.03
2022-08-10T09:17:06.506Z,102698.78
2022-08-10T09:24:18.620Z,102703.75
2022-08-10T09:27:35.145Z,102690.03
2022-08-10T09:31:18.926Z,102693.66
2022-08-10T09:36:19.318Z,102691.56
2022-08-10T09:38:12.141Z,102693.50
2022-08-10T09:41:51.352Z,102683.00
2022-08-10T09:48:36.300Z,102682.66
2022-08-10T09:51:55.350Z,102683.41
2022-08-10T09:55:13.411Z,102684.66
2022-08-10T09:58:47.880Z,102677.75
2022-08-10T10:06:28.272Z,102680.22
2022-08-10T10:09:38.086Z,102680.41
2022-08-10T10:17:08.824Z,102668.97
2022-08-10T10:21:24.136Z,102667.75
2022-08-10T10:24:44.890Z,102656.25
2022-08-10T10:27:59.969Z,102663.38
2022-08-10T10:31:17.209Z,102654.91
2022-08-10T10:34:40.307Z,102653.25
2022-08-10T10:38:10.210Z,102647.97
2022-08-10T10:41:24.824Z,102640.66
2022-08-10T10:44:42.241Z,102648.09
2022-08-10T10:48:27.496Z,102638.75
2022-08-10T13:05:26.593Z,102528.06
2022-08-10T18:40:11.793Z,102370.06
2022-08-10T18:44:11.740Z,102371.13
2022-08-10T18:47:59.921Z,102371.06
2022-08-10T18:56:09.325Z,102386.50
2022-08-10T19:13:23.685Z,102400.59
2022-08-10T20:08:39.251Z,102415.91
2022-08-10T20:12:06.191Z,102420.63
2022-08-10T20:15:42.456Z,102415.78
2022-08-10T20:19:13.586Z,102416.09
2022-08-10T20:23:15.526Z,102411.25
2022-08-10T20:27:13.092Z,102424.75
2022-08-10T20:31:17.165Z,102426.13
2022-08-10T20:34:34.137Z,102422.28
2022-08-10T20:38:03.074Z,102424.94
2022-08-10T20:41:29.649Z,102426.72
2022-08-10T20:44:44.141Z,102427.75
2022-08-10T20:48:01.636Z,102428.97
2022-08-10T20:51:21.334Z,102431.72
2022-08-10T20:54:29.344Z,102418.75
2022-08-10T20:58:01.829Z,102415.56
2022-08-10T21:01:16.897Z,102419.09
2022-08-10T21:04:33.183Z,102418.44
2022-08-10T21:33:30.489Z,102417.69
2022-08-10T21:36:47.885Z,102411.75
2022-08-10T21:40:04.209Z,102417.22
2022-08-10T21:43:51.231Z,102420.03
2022-08-10T21:47:39.578Z,102412.19
2022-08-10T22:58:46.473Z,102400.38
2022-08-10T23:02:07.352Z,102398.63
2022-08-10T23:05:15.961Z,102397.03
